createdAt,value
2023-05-22T00:01:47.012Z,15.55
2023-05-22T00:04:13.664Z,15.15
2023-05-22T00:06:43.559Z,15.05
2023-05-22T00:09:10.171Z,14.80
2023-05-22T00:11:36.796Z,15.10
2023-05-22T00:14:03.557Z,14.90
2023-05-22T00:16:30.213Z,15.35
2023-05-22T00:18:56.867Z,16.00
2023-05-22T00:21:24.521Z,15.70
2023-05-22T00:23:51.082Z,16.27
2023-05-22T00:26:17.636Z,15.32
2023-05-22T00:28:44.199Z,15.38
2023-05-22T00:31:10.740Z,16.48
2023-05-22T00:33:37.268Z,16.23
2023-05-22T00:36:04.187Z,15.70
2023-05-22T00:38:35.242Z,15.82
2023-05-22T00:41:03.665Z,16.60
2023-05-22T00:43:30.754Z,15.52
2023-05-22T00:45:57.535Z,15.43
2023-05-22T00:48:24.614Z,16.08
2023-05-22T00:50:53.623Z,15.98
2023-05-22T00:53:21.497Z,14.32
2023-05-22T00:55:48.450Z,15.57
2023-05-22T00:58:18.101Z,16.58
2023-05-22T01:03:12.023Z,13.82
2023-05-22T01:05:40.214Z,16.95
2023-05-22T01:08:07.887Z,16.27
2023-05-22T01:10:36.668Z,16.42
2023-05-22T01:13:44.350Z,16.52
2023-05-22T01:16:22.088Z,17.50
2023-05-22T01:19:16.596Z,18.33
2023-05-22T01:22:01.357Z,18.15
2023-05-22T01:24:57.010Z,18.88
2023-05-22T01:27:32.406Z,17.75
2023-05-22T01:30:29.572Z,18.38
2023-05-22T01:32:57.809Z,18.27
2023-05-22T01:35:25.498Z,18.17
2023-05-22T01:37:54.115Z,18.02
2023-05-22T01:40:21.011Z,17.17
2023-05-22T01:42:47.790Z,18.38
2023-05-22T01:45:14.687Z,17.67
2023-05-22T01:47:41.257Z,18.15
2023-05-22T01:50:08.464Z,18.40
2023-05-22T01:52:58.813Z,18.95
2023-05-22T01:55:32.798Z,18.30
2023-05-22T01:58:25.419Z,16.65
2023-05-22T02:00:55.741Z,17.70
2023-05-22T02:03:27.652Z,17.70
2023-05-22T02:05:56.792Z,17.42
2023-05-22T02:08:24.350Z,18.15
2023-05-22T02:10:54.709Z,17.17
2023-05-22T02:13:21.698Z,16.67
2023-05-22T02:15:48.672Z,16.35
2023-05-22T02:18:15.463Z,17.60
2023-05-22T02:20:42.044Z,18.23
2023-05-22T02:23:09.097Z,17.70
2023-05-22T02:25:35.670Z,18.80
2023-05-22T02:28:02.213Z,18.05
2023-05-22T02:30:28.968Z,17.35
2023-05-22T02:32:55.564Z,18.83
2023-05-22T02:35:22.125Z,17.48
2023-05-22T02:37:48.669Z,18.02
2023-05-22T02:40:15.238Z,16.70
2023-05-22T02:42:41.816Z,17.60
2023-05-22T02:45:09.006Z,16.42
2023-05-22T02:47:35.566Z,17.50
2023-05-22T02:50:02.125Z,16.52
2023-05-22T02:52:28.697Z,17.30
2023-05-22T02:54:55.214Z,16.73
2023-05-22T02:57:21.926Z,18.35
2023-05-22T02:59:48.494Z,17.10
2023-05-22T03:02:15.795Z,16.98
2023-05-22T03:04:42.332Z,16.90
2023-05-22T03:07:08.991Z,16.70
2023-05-22T03:09:35.711Z,18.38
2023-05-22T03:12:02.235Z,17.35
2023-05-22T03:14:28.804Z,18.40
2023-05-22T03:16:55.361Z,18.02
2023-05-22T03:19:23.041Z,17.10
2023-05-22T03:21:49.912Z,18.33
2023-05-22T03:24:16.758Z,18.63
2023-05-22T03:26:43.311Z,18.38
2023-05-22T03:29:09.997Z,18.70
2023-05-22T03:31:36.710Z,19.20
2023-05-22T03:34:03.733Z,17.70
2023-05-22T03:36:32.428Z,17.92
2023-05-22T03:38:59.073Z,18.83
2023-05-22T03:41:25.654Z,19.65
2023-05-22T03:43:52.251Z,19.50
2023-05-22T03:46:19.462Z,20.25
2023-05-22T03:48:46.061Z,19.15
2023-05-22T03:51:12.633Z,19.80
2023-05-22T03:53:39.204Z,18.23
2023-05-22T03:56:06.024Z,18.10
2023-05-22T03:58:32.567Z,18.27
2023-05-22T04:00:59.126Z,19.13
2023-05-22T04:03:25.733Z,18.08
2023-05-22T04:05:52.390Z,18.15
2023-05-22T04:08:19.374Z,17.55
2023-05-22T04:10:45.972Z,18.27
2023-05-22T04:13:13.530Z,17.13
2023-05-22T04:15:40.196Z,19.15
2023-05-22T04:18:07.115Z,17.20
2023-05-22T04:20:33.938Z,18.40
2023-05-22T04:23:00.486Z,17.85
2023-05-22T04:25:26.995Z,17.52
2023-05-22T04:27:53.553Z,16.67
2023-05-22T04:30:20.065Z,16.27
2023-05-22T04:32:46.632Z,17.60
2023-05-22T04:35:13.330Z,17.02
2023-05-22T04:37:39.976Z,17.67
2023-05-22T04:40:08.488Z,16.75
2023-05-22T04:42:36.266Z,18.48
2023-05-22T04:45:03.107Z,18.50
2023-05-22T04:47:29.826Z,17.70
2023-05-22T04:49:56.390Z,19.67
2023-05-22T04:52:22.919Z,18.65
2023-05-22T04:54:49.499Z,19.15
2023-05-22T04:57:16.115Z,18.67
2023-05-22T04:59:42.715Z,19.00
2023-05-22T05:02:09.339Z,18.95
2023-05-22T05:04:35.980Z,19.48
2023-05-22T05:07:02.669Z,18.65
2023-05-22T05:09:29.422Z,19.08
2023-05-22T05:11:56.192Z,19.00
2023-05-22T05:14:22.751Z,19.90
2023-05-22T05:16:49.462Z,18.92
2023-05-22T05:19:16.080Z,19.85
2023-05-22T05:21:42.654Z,20.25
2023-05-22T05:24:09.243Z,20.52
2023-05-22T05:26:35.870Z,20.38
2023-05-22T05:29:02.464Z,20.55
2023-05-22T05:31:29.075Z,21.00
2023-05-22T05:33:55.661Z,21.40
2023-05-22T05:36:24.196Z,19.77
2023-05-22T05:38:50.818Z,20.40
2023-05-22T05:41:17.416Z,20.25
2023-05-22T05:43:43.943Z,22.02
2023-05-22T05:46:10.554Z,21.67
2023-05-22T05:48:37.165Z,20.13
2023-05-22T05:51:03.754Z,20.98
2023-05-22T05:53:30.307Z,21.55
2023-05-22T05:55:56.896Z,20.45
2023-05-22T05:58:23.454Z,22.88
2023-05-22T06:00:50.058Z,21.80
2023-05-22T06:03:16.799Z,24.15
2023-05-22T06:05:43.527Z,22.55
2023-05-22T06:08:10.091Z,25.30
2023-05-22T06:10:36.868Z,23.58
2023-05-22T06:13:03.632Z,23.77
2023-05-22T06:15:30.199Z,22.85
2023-05-22T06:17:56.885Z,22.27
2023-05-22T06:20:23.570Z,22.13
2023-05-22T06:22:50.196Z,22.33
2023-05-22T06:25:16.846Z,21.05
2023-05-22T06:27:43.494Z,21.40
2023-05-22T06:30:10.314Z,22.70
2023-05-22T06:32:36.984Z,21.08
2023-05-22T06:35:03.850Z,23.63
2023-05-22T06:37:30.407Z,22.25
2023-05-22T06:39:57.041Z,21.67
2023-05-22T06:42:23.578Z,22.98
2023-05-22T06:44:50.143Z,24.25
2023-05-22T06:47:16.796Z,22.40
2023-05-22T06:49:43.343Z,21.23
2023-05-22T06:52:09.847Z,20.58
2023-05-22T06:54:36.419Z,20.45
2023-05-22T06:57:03.052Z,21.45
2023-05-22T06:59:30.789Z,20.75
2023-05-22T07:01:57.370Z,21.65
2023-05-22T07:04:23.885Z,21.67
2023-05-22T07:06:50.619Z,21.52
2023-05-22T07:09:18.788Z,23.08
2023-05-22T07:11:46.108Z,20.95
2023-05-22T07:14:12.832Z,21.58
2023-05-22T07:16:41.237Z,22.08
2023-05-22T07:19:08.144Z,21.83
2023-05-22T07:21:35.183Z,22.48
2023-05-22T07:24:02.560Z,20.88
2023-05-22T07:26:29.239Z,20.58
2023-05-22T07:28:55.917Z,19.80
2023-05-22T07:31:22.502Z,20.02
2023-05-22T07:33:49.036Z,20.85
2023-05-22T07:36:15.568Z,19.92
2023-05-22T07:38:42.108Z,18.95
2023-05-22T07:41:08.628Z,19.50
2023-05-22T07:43:35.194Z,19.33
2023-05-22T07:46:01.863Z,20.25
2023-05-22T07:48:28.468Z,19.10
2023-05-22T07:50:55.051Z,19.85
2023-05-22T07:53:21.662Z,21.75
2023-05-22T07:55:48.326Z,19.77
2023-05-22T07:58:14.892Z,20.88
2023-05-22T08:00:41.547Z,20.60
2023-05-22T08:03:08.195Z,22.45
2023-05-22T08:05:35.113Z,20.48
2023-05-22T08:08:01.664Z,22.65
2023-05-22T08:10:33.361Z,22.55
2023-05-22T08:13:08.362Z,22.27
2023-05-22T08:15:35.188Z,22.38
2023-05-22T08:18:01.825Z,22.27
2023-05-22T08:20:28.467Z,20.40
2023-05-22T08:22:55.041Z,21.30
2023-05-22T08:25:21.618Z,21.75
2023-05-22T08:27:48.216Z,22.05
2023-05-22T08:30:14.890Z,21.08
2023-05-22T08:32:41.566Z,22.67
2023-05-22T08:35:08.434Z,23.92
2023-05-22T08:37:35.003Z,23.23
2023-05-22T08:40:01.591Z,25.15
2023-05-22T08:42:28.299Z,26.33
2023-05-22T08:44:54.874Z,23.02
2023-05-22T08:47:24.835Z,25.92
2023-05-22T08:49:53.717Z,23.73
2023-05-22T08:52:22.748Z,24.50
2023-05-22T08:54:54.341Z,26.92
2023-05-22T08:57:21.492Z,23.23
2023-05-22T08:59:49.170Z,22.77
2023-05-22T09:02:17.223Z,23.67
2023-05-22T09:04:43.914Z,21.60
2023-05-22T09:07:10.594Z,22.20
2023-05-22T09:09:40.941Z,22.35
2023-05-22T09:12:09.024Z,22.05
2023-05-22T09:14:39.489Z,24.77
2023-05-22T09:17:06.304Z,25.20
2023-05-22T09:19:33.029Z,25.05
2023-05-22T09:22:05.593Z,26.88
2023-05-22T09:24:38.749Z,23.65
2023-05-22T09:27:09.174Z,25.45
2023-05-22T09:29:49.265Z,25.83
2023-05-22T09:32:16.927Z,25.08
2023-05-22T09:34:43.867Z,25.50
2023-05-22T09:37:11.077Z,26.75
2023-05-22T09:39:43.421Z,27.35
2023-05-22T09:42:11.031Z,26.10
2023-05-22T09:44:39.193Z,24.33
2023-05-22T09:47:09.096Z,24.25
2023-05-22T09:49:45.760Z,27.20
2023-05-22T09:52:12.648Z,25.40
2023-05-22T09:54:51.149Z,25.45
2023-05-22T09:57:19.417Z,26.38
2023-05-22T09:59:50.878Z,26.38
2023-05-22T10:02:19.081Z,26.40
2023-05-22T10:04:48.376Z,27.45
2023-05-22T10:07:15.928Z,24.05
2023-05-22T10:09:43.247Z,26.23
2023-05-22T10:12:10.743Z,25.30
2023-05-22T10:14:37.561Z,26.27
2023-05-22T10:17:04.719Z,25.35
2023-05-22T10:19:32.076Z,25.73
2023-05-22T10:22:00.445Z,26.73
2023-05-22T10:24:27.356Z,26.42
2023-05-22T10:26:54.550Z,25.65
2023-05-22T10:29:50.063Z,25.05
2023-05-22T10:32:47.688Z,24.90
2023-05-22T10:35:14.250Z,26.88
2023-05-22T10:38:06.770Z,25.92
2023-05-22T10:40:36.267Z,24.33
2023-05-22T10:43:03.698Z,25.55
2023-05-22T10:45:31.668Z,24.35
2023-05-22T10:48:09.119Z,24.92
2023-05-22T10:50:36.388Z,25.33
2023-05-22T10:53:38.832Z,23.83
2023-05-22T10:56:15.371Z,24.38
2023-05-22T10:58:59.847Z,23.92
2023-05-22T11:01:26.741Z,25.27
2023-05-22T11:04:00.407Z,24.42
2023-05-22T11:06:41.756Z,23.70
2023-05-22T11:12:15.166Z,25.50
2023-05-22T11:14:42.110Z,26.67
2023-05-22T11:17:11.613Z,25.13
2023-05-22T11:19:40.958Z,24.98
2023-05-22T11:22:07.851Z,27.25
2023-05-22T11:24:34.767Z,26.25
2023-05-22T11:27:08.617Z,26.65
2023-05-22T11:29:35.462Z,24.42
2023-05-22T11:32:02.166Z,25.60
2023-05-22T11:34:29.033Z,24.25
2023-05-22T11:36:59.467Z,25.83
2023-05-22T11:39:26.521Z,24.95
2023-05-22T11:41:53.175Z,26.08
2023-05-22T11:44:19.964Z,25.63
2023-05-22T11:46:46.696Z,26.00
2023-05-22T11:49:13.561Z,26.38
2023-05-22T11:51:40.611Z,25.40
2023-05-22T11:54:07.690Z,25.17
2023-05-22T11:56:34.394Z,27.05
2023-05-22T11:59:01.103Z,26.58
2023-05-22T12:01:27.624Z,25.40
2023-05-22T12:03:54.280Z,27.40
2023-05-22T12:06:21.031Z,26.45
2023-05-22T12:08:47.672Z,26.73
2023-05-22T12:11:14.316Z,25.63
2023-05-22T12:13:40.943Z,27.73
2023-05-22T12:16:21.017Z,28.17
2023-05-22T12:18:53.856Z,28.10
2023-05-22T12:21:21.660Z,25.25
2023-05-22T12:23:51.789Z,26.70
2023-05-22T12:26:19.148Z,28.45
2023-05-22T12:28:45.705Z,27.00
2023-05-22T12:31:20.433Z,26.95
2023-05-22T12:33:47.026Z,25.08
2023-05-22T12:36:13.734Z,27.02
2023-05-22T12:38:41.008Z,27.38
2023-05-22T12:41:07.932Z,27.73
2023-05-22T12:43:34.564Z,26.30
2023-05-22T12:46:02.666Z,27.88
2023-05-22T12:48:29.607Z,24.67
2023-05-22T12:50:56.261Z,25.40
2023-05-22T12:53:22.819Z,25.60
2023-05-22T12:55:49.355Z,25.08
2023-05-22T12:58:15.956Z,27.02
2023-05-22T13:00:42.571Z,26.63
2023-05-22T13:03:09.787Z,24.67
2023-05-22T13:05:36.370Z,26.83
2023-05-22T13:08:02.953Z,25.95
2023-05-22T13:10:29.562Z,26.83
2023-05-22T13:12:56.420Z,26.52
2023-05-22T13:15:22.973Z,25.30
2023-05-22T13:17:49.588Z,26.67
2023-05-22T13:20:16.296Z,26.38
2023-05-22T13:22:42.840Z,24.48
2023-05-22T13:25:09.663Z,25.27
2023-05-22T13:27:36.248Z,26.02
2023-05-22T13:30:02.930Z,26.02
2023-05-22T13:32:29.649Z,26.08
2023-05-22T13:34:56.204Z,26.75
2023-05-22T13:37:22.901Z,26.02
2023-05-22T13:39:49.480Z,25.27
2023-05-22T13:42:16.254Z,26.50
2023-05-22T13:44:42.807Z,26.58
2023-05-22T13:47:09.428Z,26.60
2023-05-22T13:49:36.021Z,27.77
2023-05-22T13:52:02.598Z,29.00
2023-05-22T13:54:29.230Z,26.45
2023-05-22T13:56:55.755Z,26.70
2023-05-22T13:59:22.315Z,26.33
2023-05-22T14:01:48.935Z,24.95
2023-05-22T14:04:15.478Z,27.60
2023-05-22T14:06:42.801Z,26.73
2023-05-22T14:09:09.371Z,27.77
2023-05-22T14:11:35.972Z,26.48
2023-05-22T14:14:02.506Z,27.33
2023-05-22T14:16:29.213Z,26.13
2023-05-22T14:18:55.990Z,27.38
2023-05-22T14:21:22.572Z,26.92
2023-05-22T14:23:49.101Z,27.08
2023-05-22T14:26:15.778Z,27.13
2023-05-22T14:28:42.628Z,27.55
2023-05-22T14:31:09.230Z,27.85
2023-05-22T14:33:36.225Z,26.55
2023-05-22T14:36:02.806Z,26.60
2023-05-22T14:38:32.314Z,27.30
2023-05-22T14:40:59.280Z,25.48
2023-05-22T14:43:25.884Z,26.60
2023-05-22T14:45:52.576Z,26.75
2023-05-22T14:48:19.257Z,27.02
2023-05-22T14:50:47.014Z,26.80
2023-05-22T14:53:13.592Z,27.13
2023-05-22T14:55:40.389Z,25.02
2023-05-22T14:58:07.132Z,25.83
2023-05-22T15:00:33.726Z,26.90
2023-05-22T15:03:00.333Z,28.35
2023-05-22T15:05:26.976Z,28.40
2023-05-22T15:07:53.536Z,25.10
2023-05-22T15:10:20.105Z,25.98
2023-05-22T15:12:46.665Z,25.25
2023-05-22T15:15:13.311Z,25.90
2023-05-22T15:17:42.418Z,25.75
2023-05-22T15:20:10.582Z,26.77
2023-05-22T15:22:37.136Z,25.95
2023-05-22T15:25:08.681Z,26.55
2023-05-22T15:27:35.885Z,26.17
2023-05-22T15:30:03.789Z,26.02
2023-05-22T15:32:32.463Z,26.15
2023-05-22T15:34:59.085Z,25.00
2023-05-22T15:37:25.650Z,26.30
2023-05-22T15:39:52.189Z,26.67
2023-05-22T15:42:18.840Z,26.92
2023-05-22T15:44:45.414Z,25.70
2023-05-22T15:47:11.967Z,26.88
2023-05-22T15:49:38.527Z,25.90
2023-05-22T15:52:05.249Z,25.70
2023-05-22T15:54:31.823Z,26.65
2023-05-22T15:56:58.389Z,28.45
2023-05-22T15:59:24.936Z,26.88
2023-05-22T16:01:51.489Z,28.85
2023-05-22T16:04:18.148Z,28.80
2023-05-22T16:06:44.724Z,27.35
2023-05-22T16:09:11.235Z,27.23
2023-05-22T16:11:37.927Z,26.88
2023-05-22T16:14:04.662Z,26.05
2023-05-22T16:16:31.256Z,24.92
2023-05-22T16:18:57.887Z,26.20
2023-05-22T16:21:24.628Z,27.38
2023-05-22T16:23:51.220Z,25.98
2023-05-22T16:26:17.800Z,25.23
2023-05-22T16:28:44.481Z,26.25
2023-05-22T16:31:11.087Z,27.38
2023-05-22T16:33:37.767Z,27.58
2023-05-22T16:36:04.744Z,25.48
2023-05-22T16:38:31.309Z,25.67
2023-05-22T16:40:57.854Z,24.92
2023-05-22T16:43:24.543Z,25.70
2023-05-22T16:45:51.332Z,24.58
2023-05-22T16:48:18.272Z,25.52
2023-05-22T16:50:44.847Z,26.02
2023-05-22T16:53:11.407Z,23.90
2023-05-22T16:55:38.224Z,24.23
2023-05-22T16:58:05.071Z,24.17
2023-05-22T17:00:31.708Z,23.90
2023-05-22T17:02:58.546Z,25.42
2023-05-22T17:05:25.394Z,23.45
2023-05-22T17:07:51.964Z,22.45
2023-05-22T17:10:18.535Z,24.17
2023-05-22T17:12:45.071Z,24.08
2023-05-22T17:15:12.006Z,24.45
2023-05-22T17:17:38.608Z,23.55
2023-05-22T17:20:05.674Z,23.88
2023-05-22T17:22:32.410Z,24.20
2023-05-22T17:24:58.940Z,23.83
2023-05-22T17:27:35.554Z,22.35
2023-05-22T17:30:04.470Z,24.40
2023-05-22T17:32:31.154Z,24.08
2023-05-22T17:34:57.787Z,23.38
2023-05-22T17:37:24.304Z,23.75
2023-05-22T17:39:50.905Z,23.10
2023-05-22T17:42:17.469Z,23.80
2023-05-22T17:44:44.062Z,22.02
2023-05-22T17:47:10.643Z,22.15
2023-05-22T17:49:37.453Z,21.55
2023-05-22T17:52:04.098Z,20.60
2023-05-22T17:54:34.763Z,21.35
2023-05-22T17:57:01.784Z,20.98
2023-05-22T17:59:28.291Z,20.15
2023-05-22T18:01:55.016Z,20.60
2023-05-22T18:04:21.650Z,18.90
2023-05-22T18:06:48.228Z,19.25
2023-05-22T18:09:14.795Z,18.98
2023-05-22T18:11:41.368Z,19.13
2023-05-22T18:14:07.942Z,19.23
2023-05-22T18:16:34.594Z,18.30
2023-05-22T18:19:01.229Z,19.80
2023-05-22T18:21:28.113Z,18.67
2023-05-22T18:23:55.533Z,17.83
2023-05-22T18:26:22.123Z,18.27
2023-05-22T18:28:48.659Z,16.55
2023-05-22T18:31:15.522Z,16.92
2023-05-22T18:33:42.085Z,16.55
2023-05-22T18:36:08.672Z,16.52
2023-05-22T18:38:35.214Z,16.65
2023-05-22T18:41:01.780Z,17.38
2023-05-22T18:43:28.438Z,16.77
2023-05-22T18:45:55.793Z,16.55
2023-05-22T18:48:22.757Z,16.08
2023-05-22T18:50:49.532Z,16.95
2023-05-22T18:53:16.078Z,16.73
2023-05-22T18:55:43.251Z,16.75
2023-05-22T18:58:11.157Z,17.08
2023-05-22T19:00:37.795Z,17.15
2023-05-22T19:03:06.021Z,17.00
2023-05-22T19:05:35.739Z,17.98
2023-05-22T19:08:02.534Z,17.42
2023-05-22T19:10:29.061Z,16.75
2023-05-22T19:12:55.661Z,17.60
2023-05-22T19:15:22.411Z,17.83
2023-05-22T19:17:49.002Z,18.38
2023-05-22T19:20:19.084Z,17.08
2023-05-22T19:22:45.605Z,18.05
2023-05-22T19:25:12.169Z,17.83
2023-05-22T19:27:39.411Z,19.27
2023-05-22T19:30:06.856Z,18.30
2023-05-22T19:32:33.456Z,18.52
2023-05-22T19:35:00.060Z,19.35
2023-05-22T19:37:26.654Z,19.25
2023-05-22T19:39:53.978Z,18.50
2023-05-22T19:42:20.566Z,18.77
2023-05-22T19:44:47.205Z,18.08
2023-05-22T19:47:13.922Z,18.15
2023-05-22T19:49:40.519Z,20.20
2023-05-22T19:52:07.129Z,18.65
2023-05-22T19:54:34.649Z,21.20
2023-05-22T19:57:02.016Z,19.45
2023-05-22T19:59:28.650Z,20.80
2023-05-22T20:01:55.246Z,18.67
2023-05-22T20:04:21.825Z,18.90
2023-05-22T20:06:48.402Z,21.80
2023-05-22T20:09:15.096Z,20.13
2023-05-22T20:11:41.639Z,20.88
2023-05-22T20:14:08.262Z,18.60
2023-05-22T20:16:35.009Z,20.70
2023-05-22T20:19:01.663Z,20.02
2023-05-22T20:21:28.307Z,18.05
2023-05-22T20:23:54.869Z,18.90
2023-05-22T20:26:21.430Z,19.13
2023-05-22T20:28:48.077Z,18.73
2023-05-22T20:31:14.697Z,19.35
2023-05-22T20:33:41.281Z,19.65
2023-05-22T20:36:07.958Z,19.85
2023-05-22T20:38:34.483Z,19.70
2023-05-22T20:41:02.004Z,19.50
2023-05-22T20:43:28.583Z,19.67
2023-05-22T20:45:55.232Z,19.30
2023-05-22T20:48:21.772Z,19.02
2023-05-22T20:50:48.356Z,18.02
2023-05-22T20:53:14.866Z,18.75
2023-05-22T20:55:41.631Z,19.70
2023-05-22T20:58:08.331Z,18.90
2023-05-22T21:00:35.048Z,18.42
2023-05-22T21:03:01.666Z,17.88
2023-05-22T21:05:28.303Z,16.83
2023-05-22T21:07:54.895Z,16.45
2023-05-22T21:10:21.428Z,18.15
2023-05-22T21:12:47.989Z,17.98
2023-05-22T21:15:14.533Z,17.38
2023-05-22T21:17:41.090Z,18.10
2023-05-22T21:20:07.917Z,18.77
2023-05-22T21:22:34.445Z,19.70
2023-05-22T21:25:00.989Z,19.30
2023-05-22T21:27:27.588Z,19.55
2023-05-22T21:29:54.237Z,20.15
2023-05-22T21:32:20.799Z,21.02
2023-05-22T21:34:47.328Z,21.50
2023-05-22T21:37:13.889Z,20.48
2023-05-22T21:39:40.551Z,20.45
2023-05-22T21:42:07.413Z,20.00
2023-05-22T21:44:34.180Z,21.08
2023-05-22T21:47:00.818Z,21.98
2023-05-22T21:49:27.500Z,21.00
2023-05-22T21:51:54.101Z,20.88
2023-05-22T21:54:20.653Z,20.83
2023-05-22T21:56:47.261Z,20.75
2023-05-22T21:59:13.943Z,19.73
2023-05-22T22:01:40.818Z,20.90
2023-05-22T22:04:07.453Z,20.42
2023-05-22T22:06:34.061Z,21.55
2023-05-22T22:09:00.625Z,22.73
2023-05-22T22:11:27.197Z,21.17
2023-05-22T22:13:53.747Z,21.50
2023-05-22T22:16:20.505Z,21.13
2023-05-22T22:18:47.440Z,19.95
2023-05-22T22:21:14.017Z,22.30
2023-05-22T22:23:40.717Z,23.13
2023-05-22T22:26:07.708Z,23.42
2023-05-22T22:28:34.266Z,23.98
2023-05-22T22:31:00.776Z,23.17
2023-05-22T22:33:27.339Z,24.70
2023-05-22T22:35:53.943Z,25.52
2023-05-22T22:38:20.524Z,24.13
2023-05-22T22:40:47.167Z,24.52
2023-05-22T22:43:13.717Z,24.13
2023-05-22T22:45:40.548Z,23.25
2023-05-22T22:48:07.547Z,24.30
2023-05-22T22:50:34.264Z,23.58
2023-05-22T22:53:00.850Z,22.13
2023-05-22T22:55:27.492Z,21.40
2023-05-22T22:57:54.340Z,19.23
2023-05-22T23:00:20.951Z,21.65
2023-05-22T23:02:47.589Z,20.52
2023-05-22T23:05:14.448Z,19.55
2023-05-22T23:07:41.219Z,19.63
2023-05-22T23:10:08.507Z,20.45
2023-05-22T23:12:35.154Z,22.77
2023-05-22T23:15:02.626Z,22.58
2023-05-22T23:17:29.467Z,22.60
2023-05-22T23:19:56.206Z,21.50
2023-05-22T23:22:23.459Z,20.05
2023-05-22T23:24:50.045Z,21.20
2023-05-22T23:27:16.612Z,20.70
2023-05-22T23:29:43.203Z,16.95
2023-05-22T23:32:10.525Z,17.75
2023-05-22T23:34:38.307Z,15.38
2023-05-22T23:37:04.826Z,12.60
2023-05-22T23:39:31.356Z,10.73
2023-05-22T23:41:57.856Z,9.57
2023-05-22T23:44:24.419Z,8.07
2023-05-22T23:46:51.062Z,8.32
2023-05-22T23:49:17.668Z,6.95
2023-05-22T23:51:44.296Z,7.22
2023-05-22T23:54:10.835Z,6.70
2023-05-22T23:56:37.342Z,6.65
2023-05-22T23:59:03.891Z,6.60
